sensor_id;sensor_type;location;lat;lon;timestamp;pressure;altitude;pressure_sealevel;temperature;humidity
51715;BME280;39115;59.332;18.034;2023-09-18T00:01:49;102084.00;;;15.78;53.91
51715;BME280;39115;59.332;18.034;2023-09-18T00:04:10;102091.47;;;15.75;54.21
51715;BME280;39115;59.332;18.034;2023-09-18T00:06:31;102088.06;;;15.73;54.00
51715;BME280;39115;59.332;18.034;2023-09-18T00:08:51;102078.44;;;15.70;53.84
51715;BME280;39115;59.332;18.034;2023-09-18T00:11:13;102086.66;;;15.69;53.88
51715;BME280;39115;59.332;18.034;2023-09-18T00:13:34;102078.84;;;15.65;54.11
51715;BME280;39115;59.332;18.034;2023-09-18T00:15:55;102069.25;;;15.63;53.91
51715;BME280;39115;59.332;18.034;2023-09-18T00:18:16;102073.88;;;15.61;54.07
51715;BME280;39115;59.332;18.034;2023-09-18T00:20:37;102076.72;;;15.59;54.12
51715;BME280;39115;59.332;18.034;2023-09-18T00:22:58;102076.97;;;15.56;54.28
51715;BME280;39115;59.332;18.034;2023-09-18T00:25:18;102070.91;;;15.54;54.17
51715;BME280;39115;59.332;18.034;2023-09-18T00:27:39;102081.75;;;15.53;54.06
51715;BME280;39115;59.332;18.034;2023-09-18T00:29:59;102087.28;;;15.51;54.32
51715;BME280;39115;59.332;18.034;2023-09-18T00:32:20;102084.00;;;15.47;54.20
51715;BME280;39115;59.332;18.034;2023-09-18T00:34:41;102078.78;;;15.46;54.08
51715;BME280;39115;59.332;18.034;2023-09-18T00:37:02;102069.19;;;15.43;53.95
51715;BME280;39115;59.332;18.034;2023-09-18T00:39:22;102060.41;;;15.41;54.15
51715;BME280;39115;59.332;18.034;2023-09-18T00:41:43;102063.22;;;15.40;54.24
51715;BME280;39115;59.332;18.034;2023-09-18T00:44:04;102070.69;;;15.36;54.01
51715;BME280;39115;59.332;18.034;2023-09-18T00:46:25;102070.81;;;15.34;53.92
51715;BME280;39115;59.332;18.034;2023-09-18T00:48:46;102064.88;;;15.31;54.20
51715;BME280;39115;59.332;18.034;2023-09-18T00:51:08;102059.66;;;15.29;53.91
51715;BME280;39115;59.332;18.034;2023-09-18T00:53:29;102052.72;;;15.27;54.05
51715;BME280;39115;59.332;18.034;2023-09-18T00:55:53;102055.53;;;15.25;54.01
51715;BME280;39115;59.332;18.034;2023-09-18T00:58:15;102053.97;;;15.23;54.36
51715;BME280;39115;59.332;18.034;2023-09-18T01:00:37;102051.56;;;15.20;54.20
51715;BME280;39115;59.332;18.034;2023-09-18T01:03:01;102046.31;;;15.18;54.32
51715;BME280;39115;59.332;18.034;2023-09-18T01:05:22;102042.06;;;15.15;54.26
51715;BME280;39115;59.332;18.034;2023-09-18T01:07:42;102040.50;;;15.13;54.27
51715;BME280;39115;59.332;18.034;2023-09-18T01:10:04;102055.03;;;15.10;53.91
51715;BME280;39115;59.332;18.034;2023-09-18T01:13:04;102049.78;;;15.09;54.29
51715;BME280;39115;59.332;18.034;2023-09-18T01:15:29;102049.22;;;15.05;54.13
51715;BME280;39115;59.332;18.034;2023-09-18T01:17:51;102052.03;;;15.04;54.41
51715;BME280;39115;59.332;18.034;2023-09-18T01:20:12;102057.69;;;15.00;54.01
51715;BME280;39115;59.332;18.034;2023-09-18T01:22:33;102049.75;;;14.99;54.27
51715;BME280;39115;59.332;18.034;2023-09-18T01:24:53;102049.00;;;14.97;54.19
51715;BME280;39115;59.332;18.034;2023-09-18T01:27:15;102054.53;;;14.95;54.08
51715;BME280;39115;59.332;18.034;2023-09-18T01:29:40;102056.63;;;14.92;54.04
51715;BME280;39115;59.332;18.034;2023-09-18T01:32:01;102055.78;;;14.91;54.29
51715;BME280;39115;59.332;18.034;2023-09-18T01:34:25;102053.34;;;14.88;54.02
51715;BME280;39115;59.332;18.034;2023-09-18T01:36:47;102047.25;;;14.86;54.30
51715;BME280;39115;59.332;18.034;2023-09-18T01:39:08;102049.34;;;14.82;54.30
51715;BME280;39115;59.332;18.034;2023-09-18T01:41:30;102053.00;;;14.81;54.33
51715;BME280;39115;59.332;18.034;2023-09-18T01:43:52;102047.06;;;14.78;54.25
51715;BME280;39115;59.332;18.034;2023-09-18T01:46:13;102052.56;;;14.76;54.33
51715;BME280;39115;59.332;18.034;2023-09-18T01:48:34;102043.94;;;14.73;54.13
51715;BME280;39115;59.332;18.034;2023-09-18T01:50:54;102047.59;;;14.72;54.14
51715;BME280;39115;59.332;18.034;2023-09-18T01:53:15;102047.72;;;14.70;54.06
51715;BME280;39115;59.332;18.034;2023-09-18T01:55:35;102047.00;;;14.68;54.25
51715;BME280;39115;59.332;18.034;2023-09-18T01:57:56;102048.09;;;14.65;54.23
51715;BME280;39115;59.332;18.034;2023-09-18T02:00:17;102049.06;;;14.64;54.27
51715;BME280;39115;59.332;18.034;2023-09-18T02:02:38;102052.84;;;14.62;54.10
51715;BME280;39115;59.332;18.034;2023-09-18T02:04:59;102043.25;;;14.59;54.35
51715;BME280;39115;59.332;18.034;2023-09-18T02:07:21;102040.72;;;14.58;54.08
51715;BME280;39115;59.332;18.034;2023-09-18T02:09:41;102039.13;;;14.55;54.23
51715;BME280;39115;59.332;18.034;2023-09-18T02:12:02;102041.94;;;14.53;54.33
51715;BME280;39115;59.332;18.034;2023-09-18T02:14:23;102041.19;;;14.51;54.11
51715;BME280;39115;59.332;18.034;2023-09-18T02:16:43;102035.97;;;14.50;54.31
51715;BME280;39115;59.332;18.034;2023-09-18T02:19:05;102027.22;;;14.48;54.19
51715;BME280;39115;59.332;18.034;2023-09-18T02:21:27;102028.34;;;14.45;54.17
51715;BME280;39115;59.332;18.034;2023-09-18T02:23:52;102030.28;;;14.43;54.42
51715;BME280;39115;59.332;18.034;2023-09-18T02:26:12;102026.91;;;14.41;54.36
51715;BME280;39115;59.332;18.034;2023-09-18T02:28:33;102018.13;;;14.39;54.18
51715;BME280;39115;59.332;18.034;2023-09-18T02:30:54;102011.22;;;14.36;54.12
51715;BME280;39115;59.332;18.034;2023-09-18T02:33:15;102003.28;;;14.35;54.28
51715;BME280;39115;59.332;18.034;2023-09-18T02:35:35;102008.06;;;14.31;54.36
51715;BME280;39115;59.332;18.034;2023-09-18T02:37:56;102010.88;;;14.30;54.29
51715;BME280;39115;59.332;18.034;2023-09-18T02:40:17;102006.63;;;14.27;54.36
51715;BME280;39115;59.332;18.034;2023-09-18T02:42:37;102010.28;;;14.26;54.24
51715;BME280;39115;59.332;18.034;2023-09-18T02:44:58;102007.84;;;14.23;54.17
51715;BME280;39115;59.332;18.034;2023-09-18T02:47:19;102015.88;;;14.23;54.50
51715;BME280;39115;59.332;18.034;2023-09-18T02:49:39;102013.47;;;14.20;54.42
51715;BME280;39115;59.332;18.034;2023-09-18T02:52:00;102005.56;;;14.18;54.35
51715;BME280;39115;59.332;18.034;2023-09-18T02:54:20;102012.88;;;14.16;54.38
51715;BME280;39115;59.332;18.034;2023-09-18T02:56:41;102008.50;;;14.15;54.14
51715;BME280;39115;59.332;18.034;2023-09-18T02:59:02;102006.06;;;14.12;54.16
51715;BME280;39115;59.332;18.034;2023-09-18T03:01:22;102003.53;;;14.11;54.31
51715;BME280;39115;59.332;18.034;2023-09-18T03:03:43;102000.13;;;14.08;54.38
51715;BME280;39115;59.332;18.034;2023-09-18T03:06:05;101999.41;;;14.06;54.25
51715;BME280;39115;59.332;18.034;2023-09-18T03:08:26;102004.88;;;14.05;54.41
51715;BME280;39115;59.332;18.034;2023-09-18T03:10:47;101994.44;;;14.02;54.47
51715;BME280;39115;59.332;18.034;2023-09-18T03:13:09;101991.88;;;14.00;54.12
51715;BME280;39115;59.332;18.034;2023-09-18T03:15:30;101991.16;;;13.98;54.35
51715;BME280;39115;59.332;18.034;2023-09-18T03:17:51;101984.25;;;13.96;54.33
51715;BME280;39115;59.332;18.034;2023-09-18T03:20:14;101978.16;;;13.94;54.34
51715;BME280;39115;59.332;18.034;2023-09-18T03:22:35;101972.06;;;13.91;54.37
51715;BME280;39115;59.332;18.034;2023-09-18T03:24:55;101980.25;;;13.90;54.17
51715;BME280;39115;59.332;18.034;2023-09-18T03:27:16;101976.00;;;13.87;54.33
51715;BME280;39115;59.332;18.034;2023-09-18T03:29:37;101975.25;;;13.85;54.16
51715;BME280;39115;59.332;18.034;2023-09-18T03:31:57;101972.72;;;13.84;54.32
51715;BME280;39115;59.332;18.034;2023-09-18T03:34:19;101966.63;;;13.82;54.18
51715;BME280;39115;59.332;18.034;2023-09-18T03:36:40;101958.84;;;13.79;54.41
51715;BME280;39115;59.332;18.034;2023-09-18T03:39:00;101967.00;;;13.77;54.27
51715;BME280;39115;59.332;18.034;2023-09-18T03:41:22;101972.50;;;13.75;54.14
51715;BME280;39115;59.332;18.034;2023-09-18T03:43:43;101966.41;;;13.73;54.32
51715;BME280;39115;59.332;18.034;2023-09-18T03:46:05;101962.88;;;13.73;54.45
51715;BME280;39115;59.332;18.034;2023-09-18T03:48:25;101964.13;;;13.69;54.30
51715;BME280;39115;59.332;18.034;2023-09-18T03:50:47;101958.03;;;13.67;54.34
51715;BME280;39115;59.332;18.034;2023-09-18T03:53:09;101950.13;;;13.65;54.41
51715;BME280;39115;59.332;18.034;2023-09-18T03:55:30;101953.91;;;13.63;54.15
51715;BME280;39115;59.332;18.034;2023-09-18T03:57:52;101942.50;;;13.60;54.32
51715;BME280;39115;59.332;18.034;2023-09-18T04:00:13;101943.47;;;13.59;54.30
51715;BME280;39115;59.332;18.034;2023-09-18T04:02:33;101935.56;;;13.58;54.24
51715;BME280;39115;59.332;18.034;2023-09-18T04:04:54;101925.00;;;13.56;54.32
51715;BME280;39115;59.332;18.034;2023-09-18T04:07:15;101933.25;;;13.53;54.33
51715;BME280;39115;59.332;18.034;2023-09-18T04:09:39;101923.78;;;13.49;54.35
51715;BME280;39115;59.332;18.034;2023-09-18T04:12:04;101923.78;;;13.49;54.31
51715;BME280;39115;59.332;18.034;2023-09-18T04:14:27;101922.22;;;13.47;54.24
51715;BME280;39115;59.332;18.034;2023-09-18T04:16:47;101920.63;;;13.44;54.22
51715;BME280;39115;59.332;18.034;2023-09-18T04:19:08;101908.38;;;13.41;54.44
51715;BME280;39115;59.332;18.034;2023-09-18T04:21:30;101912.00;;;13.40;54.34
51715;BME280;39115;59.332;18.034;2023-09-18T04:23:50;101901.56;;;13.37;54.32
51715;BME280;39115;59.332;18.034;2023-09-18T04:26:16;101900.69;;;13.37;54.44
51715;BME280;39115;59.332;18.034;2023-09-18T04:28:36;101892.91;;;13.34;54.21
51715;BME280;39115;59.332;18.034;2023-09-18T04:30:57;101900.22;;;13.32;54.28
51715;BME280;39115;59.332;18.034;2023-09-18T04:33:17;101894.00;;;13.31;54.16
51715;BME280;39115;59.332;18.034;2023-09-18T04:35:38;101893.31;;;13.29;54.35
51715;BME280;39115;59.332;18.034;2023-09-18T04:38:02;101893.41;;;13.27;54.40
51715;BME280;39115;59.332;18.034;2023-09-18T04:40:22;101890.03;;;13.25;54.34
51715;BME280;39115;59.332;18.034;2023-09-18T04:42:44;101888.44;;;13.23;54.44
51715;BME280;39115;59.332;18.034;2023-09-18T04:45:05;101894.78;;;13.22;54.42
51715;BME280;39115;59.332;18.034;2023-09-18T04:47:26;101892.22;;;13.20;54.38
51715;BME280;39115;59.332;18.034;2023-09-18T04:49:46;101897.69;;;13.19;54.42
51715;BME280;39115;59.332;18.034;2023-09-18T04:52:09;101899.63;;;13.17;54.28
51715;BME280;39115;59.332;18.034;2023-09-18T04:54:30;101892.56;;;13.16;54.50
51715;BME280;39115;59.332;18.034;2023-09-18T04:56:51;101898.06;;;13.14;54.29
51715;BME280;39115;59.332;18.034;2023-09-18T04:59:11;101893.69;;;13.13;54.33
51715;BME280;39115;59.332;18.034;2023-09-18T05:01:32;101896.47;;;13.11;54.39
51715;BME280;39115;59.332;18.034;2023-09-18T05:03:52;101893.06;;;13.09;54.44
51715;BME280;39115;59.332;18.034;2023-09-18T05:06:14;101895.88;;;13.08;54.20
51715;BME280;39115;59.332;18.034;2023-09-18T05:08:35;101883.50;;;13.07;54.36
51715;BME280;39115;59.332;18.034;2023-09-18T05:10:55;101886.16;;;13.07;54.22
51715;BME280;39115;59.332;18.034;2023-09-18T05:13:17;101895.38;;;13.03;54.35
51715;BME280;39115;59.332;18.034;2023-09-18T05:15:38;101892.72;;;13.03;54.38
51715;BME280;39115;59.332;18.034;2023-09-18T05:18:00;101890.16;;;13.01;54.39
51715;BME280;39115;59.332;18.034;2023-09-18T05:20:21;101884.94;;;13.00;54.34
51715;BME280;39115;59.332;18.034;2023-09-18T05:22:45;101878.88;;;12.97;54.35
51715;BME280;39115;59.332;18.034;2023-09-18T05:25:05;101885.91;;;12.99;54.30
51715;BME280;39115;59.332;18.034;2023-09-18T05:27:27;101880.81;;;12.95;54.50
51715;BME280;39115;59.332;18.034;2023-09-18T05:29:47;101885.31;;;12.95;54.46
51715;BME280;39115;59.332;18.034;2023-09-18T05:32:08;101882.78;;;12.93;54.46
51715;BME280;39115;59.332;18.034;2023-09-18T05:34:28;101876.69;;;12.91;54.39
51715;BME280;39115;59.332;18.034;2023-09-18T05:36:49;101866.97;;;12.90;54.34
51715;BME280;39115;59.332;18.034;2023-09-18T05:39:10;101870.63;;;12.89;54.41
51715;BME280;39115;59.332;18.034;2023-09-18T05:41:33;101873.28;;;12.89;54.46
51715;BME280;39115;59.332;18.034;2023-09-18T05:43:53;101872.56;;;12.87;54.43
51715;BME280;39115;59.332;18.034;2023-09-18T05:46:14;101876.22;;;12.86;54.45
51715;BME280;39115;59.332;18.034;2023-09-18T05:48:34;101879.88;;;12.85;54.44
51715;BME280;39115;59.332;18.034;2023-09-18T05:50:55;101875.50;;;12.84;54.44
51715;BME280;39115;59.332;18.034;2023-09-18T05:53:15;101865.78;;;12.83;54.38
51715;BME280;39115;59.332;18.034;2023-09-18T05:55:36;101865.91;;;12.81;54.48
51715;BME280;39115;59.332;18.034;2023-09-18T05:57:57;101864.19;;;12.80;54.21
51715;BME280;39115;59.332;18.034;2023-09-18T06:00:17;101857.16;;;12.79;54.31
51715;BME280;39115;59.332;18.034;2023-09-18T06:02:39;101859.81;;;12.79;54.46
51715;BME280;39115;59.332;18.034;2023-09-18T06:05:01;101859.09;;;12.77;54.46
51715;BME280;39115;59.332;18.034;2023-09-18T06:07:27;101856.41;;;12.77;54.34
51715;BME280;39115;59.332;18.034;2023-09-18T06:09:47;101851.19;;;12.76;54.31
51715;BME280;39115;59.332;18.034;2023-09-18T06:12:08;101850.34;;;12.75;54.31
51715;BME280;39115;59.332;18.034;2023-09-18T06:14:30;101848.53;;;12.76;54.30
51715;BME280;39115;59.332;18.034;2023-09-18T06:16:51;101838.94;;;12.73;54.51
51715;BME280;39115;59.332;18.034;2023-09-18T06:19:12;101843.41;;;12.73;54.32
51715;BME280;39115;59.332;18.034;2023-09-18T06:21:33;101838.94;;;12.73;54.41
51715;BME280;39115;59.332;18.034;2023-09-18T06:23:54;101837.25;;;12.72;54.41
51715;BME280;39115;59.332;18.034;2023-09-18T06:26:14;101833.69;;;12.72;54.42
51715;BME280;39115;59.332;18.034;2023-09-18T06:28:35;101831.16;;;12.70;54.50
51715;BME280;39115;59.332;18.034;2023-09-18T06:30:56;101827.53;;;12.71;54.66
51715;BME280;39115;59.332;18.034;2023-09-18T06:33:16;101826.69;;;12.71;54.38
51715;BME280;39115;59.332;18.034;2023-09-18T06:35:37;101824.00;;;12.71;54.25
51715;BME280;39115;59.332;18.034;2023-09-18T06:37:58;101814.28;;;12.70;54.43
51715;BME280;39115;59.332;18.034;2023-09-18T06:40:20;101817.81;;;12.70;54.38
51715;BME280;39115;59.332;18.034;2023-09-18T06:42:41;101809.78;;;12.70;54.26
51715;BME280;39115;59.332;18.034;2023-09-18T06:45:01;101808.09;;;12.69;54.29
51715;BME280;39115;59.332;18.034;2023-09-18T06:47:27;101808.09;;;12.69;54.32
51715;BME280;39115;59.332;18.034;2023-09-18T06:49:47;101803.63;;;12.70;54.45
51715;BME280;39115;59.332;18.034;2023-09-18T06:52:09;101810.75;;;12.69;54.32
51715;BME280;39115;59.332;18.034;2023-09-18T06:54:29;101810.75;;;12.69;54.31
51715;BME280;39115;59.332;18.034;2023-09-18T06:56:50;101807.13;;;12.70;54.43
51715;BME280;39115;59.332;18.034;2023-09-18T06:59:11;101806.28;;;12.70;54.25
51715;BME280;39115;59.332;18.034;2023-09-18T07:01:34;101800.94;;;12.70;54.20
51715;BME280;39115;59.332;18.034;2023-09-18T07:03:55;101801.78;;;12.70;54.48
51715;BME280;39115;59.332;18.034;2023-09-18T07:06:17;101809.66;;;12.72;54.36
51715;BME280;39115;59.332;18.034;2023-09-18T07:08:40;101809.66;;;12.72;54.32
51715;BME280;39115;59.332;18.034;2023-09-18T07:11:01;101805.19;;;12.72;54.43
51715;BME280;39115;59.332;18.034;2023-09-18T07:13:21;101792.66;;;12.73;54.43
51715;BME280;39115;59.332;18.034;2023-09-18T07:15:42;101796.19;;;12.73;54.24
51715;BME280;39115;59.332;18.034;2023-09-18T07:18:03;101800.56;;;12.74;54.33
51715;BME280;39115;59.332;18.034;2023-09-18T07:20:24;101794.22;;;12.75;54.30
51715;BME280;39115;59.332;18.034;2023-09-18T07:22:46;101786.22;;;12.75;54.36
51715;BME280;39115;59.332;18.034;2023-09-18T07:25:10;101793.16;;;12.78;54.30
51715;BME280;39115;59.332;18.034;2023-09-18T07:27:31;101782.47;;;12.78;54.31
51715;BME280;39115;59.332;18.034;2023-09-18T07:29:55;101786.84;;;12.79;54.33
51715;BME280;39115;59.332;18.034;2023-09-18T07:32:15;101780.50;;;12.80;54.49
51715;BME280;39115;59.332;18.034;2023-09-18T07:34:36;101776.88;;;12.81;54.24
51715;BME280;39115;59.332;18.034;2023-09-18T07:36:57;101773.22;;;12.82;54.16
51715;BME280;39115;59.332;18.034;2023-09-18T07:39:19;101771.28;;;12.84;54.25
51715;BME280;39115;59.332;18.034;2023-09-18T07:41:40;101761.34;;;12.86;54.00
51715;BME280;39115;59.332;18.034;2023-09-18T07:44:00;101755.84;;;12.88;54.17
51715;BME280;39115;59.332;18.034;2023-09-18T07:46:21;101767.38;;;12.88;54.18
51715;BME280;39115;59.332;18.034;2023-09-18T07:48:41;101761.94;;;12.90;54.13
51715;BME280;39115;59.332;18.034;2023-09-18T07:51:02;101762.75;;;12.90;54.27
51715;BME280;39115;59.332;18.034;2023-09-18T07:53:23;101755.47;;;12.92;54.17
51715;BME280;39115;59.332;18.034;2023-09-18T07:55:43;101749.03;;;12.95;54.16
51715;BME280;39115;59.332;18.034;2023-09-18T07:58:04;101749.75;;;12.97;54.09
51715;BME280;39115;59.332;18.034;2023-09-18T08:00:25;101747.91;;;12.97;54.19
51715;BME280;39115;59.332;18.034;2023-09-18T08:02:46;101748.66;;;13.00;54.11
51715;BME280;39115;59.332;18.034;2023-09-18T08:05:09;101752.06;;;13.02;54.18
51715;BME280;39115;59.332;18.034;2023-09-18T08:07:30;101752.75;;;13.04;54.22
51715;BME280;39115;59.332;18.034;2023-09-18T08:09:51;101740.13;;;13.06;53.97
51715;BME280;39115;59.332;18.034;2023-09-18T08:12:11;101739.16;;;13.07;54.08
51715;BME280;39115;59.332;18.034;2023-09-18T08:14:32;101734.53;;;13.09;54.12
51715;BME280;39115;59.332;18.034;2023-09-18T08:16:59;101737.91;;;13.11;54.16
51715;BME280;39115;59.332;18.034;2023-09-18T08:19:20;101735.97;;;13.13;54.07
51715;BME280;39115;59.332;18.034;2023-09-18T08:21:41;101727.81;;;13.15;54.05
51715;BME280;39115;59.332;18.034;2023-09-18T08:24:02;101723.19;;;13.17;54.20
51715;BME280;39115;59.332;18.034;2023-09-18T08:26:22;101713.22;;;13.19;53.96
51715;BME280;39115;59.332;18.034;2023-09-18T08:28:43;101713.97;;;13.21;54.12
51715;BME280;39115;59.332;18.034;2023-09-18T08:31:04;101710.16;;;13.23;54.03
51715;BME280;39115;59.332;18.034;2023-09-18T08:33:24;101711.72;;;13.26;53.98
51715;BME280;39115;59.332;18.034;2023-09-18T08:35:46;101697.41;;;13.27;54.10
51715;BME280;39115;59.332;18.034;2023-09-18T08:38:07;101690.09;;;13.29;54.10
51715;BME280;39115;59.332;18.034;2023-09-18T08:40:27;101684.63;;;13.31;53.95
51715;BME280;39115;59.332;18.034;2023-09-18T08:42:51;101677.31;;;13.33;54.06
51715;BME280;39115;59.332;18.034;2023-09-18T08:45:27;101682.38;;;13.36;54.07
51715;BME280;39115;59.332;18.034;2023-09-18T08:47:51;101678.75;;;13.37;53.94
51715;BME280;39115;59.332;18.034;2023-09-18T08:50:15;101675.84;;;13.40;54.40
51715;BME280;39115;59.332;18.034;2023-09-18T08:52:36;101668.66;;;13.40;54.07
51715;BME280;39115;59.332;18.034;2023-09-18T08:54:57;101663.91;;;13.44;53.74
51715;BME280;39115;59.332;18.034;2023-09-18T08:57:19;101654.91;;;13.45;53.96
51715;BME280;39115;59.332;18.034;2023-09-18T08:59:42;101652.81;;;13.49;53.94
51715;BME280;39115;59.332;18.034;2023-09-18T09:02:04;101643.81;;;13.50;53.89
51715;BME280;39115;59.332;18.034;2023-09-18T09:04:24;101640.00;;;13.52;53.96
51715;BME280;39115;59.332;18.034;2023-09-18T09:06:46;101645.13;;;13.55;53.87
51715;BME280;39115;59.332;18.034;2023-09-18T09:09:06;101644.97;;;13.57;53.89
51715;BME280;39115;59.332;18.034;2023-09-18T09:11:28;101644.72;;;13.60;53.80
51715;BME280;39115;59.332;18.034;2023-09-18T09:14:09;101647.97;;;13.64;53.84
51715;BME280;39115;59.332;18.034;2023-09-18T09:16:31;101641.50;;;13.66;53.79
51715;BME280;39115;59.332;18.034;2023-09-18T09:18:52;101637.00;;;13.67;53.74
51715;BME280;39115;59.332;18.034;2023-09-18T09:21:13;101636.59;;;13.71;54.13
51715;BME280;39115;59.332;18.034;2023-09-18T09:23:51;101622.09;;;13.74;53.96
51715;BME280;39115;59.332;18.034;2023-09-18T09:26:13;101612.94;;;13.76;53.72
51715;BME280;39115;59.332;18.034;2023-09-18T09:28:35;101611.00;;;13.79;53.81
51715;BME280;39115;59.332;18.034;2023-09-18T09:31:00;101600.16;;;13.80;54.17
51715;BME280;39115;59.332;18.034;2023-09-18T09:33:24;101592.72;;;13.84;53.75
51715;BME280;39115;59.332;18.034;2023-09-18T09:35:44;101585.38;;;13.86;53.87
51715;BME280;39115;59.332;18.034;2023-09-18T09:38:09;101578.78;;;13.90;53.78
51715;BME280;39115;59.332;18.034;2023-09-18T09:40:30;101575.81;;;13.93;53.84
51715;BME280;39115;59.332;18.034;2023-09-18T09:42:52;101576.53;;;13.95;53.94
51715;BME280;39115;59.332;18.034;2023-09-18T09:45:15;101566.41;;;13.99;53.62
51715;BME280;39115;59.332;18.034;2023-09-18T09:47:39;101568.81;;;14.02;53.88
51715;BME280;39115;59.332;18.034;2023-09-18T09:50:06;101562.34;;;14.04;53.65
51715;BME280;39115;59.332;18.034;2023-09-18T09:52:26;101555.88;;;14.07;53.86
51715;BME280;39115;59.332;18.034;2023-09-18T09:54:47;101551.94;;;14.11;53.80
51715;BME280;39115;59.332;18.034;2023-09-18T09:57:08;101554.31;;;14.14;53.63
51715;BME280;39115;59.332;18.034;2023-09-18T09:59:28;101551.38;;;14.17;53.92
51715;BME280;39115;59.332;18.034;2023-09-18T10:01:50;101555.47;;;14.21;53.81
51715;BME280;39115;59.332;18.034;2023-09-18T10:04:16;101550.81;;;14.23;53.62
51715;BME280;39115;59.332;18.034;2023-09-18T10:06:37;101562.94;;;14.28;53.62
51715;BME280;39115;59.332;18.034;2023-09-18T10:09:06;101557.31;;;14.31;53.90
51715;BME280;39115;59.332;18.034;2023-09-18T10:11:28;101559.72;;;14.34;53.73
51715;BME280;39115;59.332;18.034;2023-09-18T10:14:09;101558.59;;;14.36;53.56
51715;BME280;39115;59.332;18.034;2023-09-18T10:16:34;101559.28;;;14.38;53.63
51715;BME280;39115;59.332;18.034;2023-09-18T10:19:17;101552.50;;;14.44;53.90
51715;BME280;39115;59.332;18.034;2023-09-18T10:22:06;101543.34;;;14.47;54.00
51715;BME280;39115;59.332;18.034;2023-09-18T10:24:34;101540.41;;;14.50;53.97
51715;BME280;39115;59.332;18.034;2023-09-18T10:27:01;101533.06;;;14.52;53.78
51715;BME280;39115;59.332;18.034;2023-09-18T10:29:29;101535.19;;;14.58;53.72
51715;BME280;39115;59.332;18.034;2023-09-18T10:31:52;101536.72;;;14.61;53.96
51715;BME280;39115;59.332;18.034;2023-09-18T10:34:16;101539.13;;;14.64;53.70
51715;BME280;39115;59.332;18.034;2023-09-18T10:36:37;101540.72;;;14.66;53.82
51715;BME280;39115;59.332;18.034;2023-09-18T10:39:00;101546.63;;;14.70;53.98
51715;BME280;39115;59.332;18.034;2023-09-18T10:41:20;101543.69;;;14.73;53.84
51715;BME280;39115;59.332;18.034;2023-09-18T10:43:41;101551.25;;;14.78;53.67
51715;BME280;39115;59.332;18.034;2023-09-18T10:46:02;101536.75;;;14.80;53.59
51715;BME280;39115;59.332;18.034;2023-09-18T10:48:23;101527.56;;;14.83;53.98
51715;BME280;39115;59.332;18.034;2023-09-18T10:50:44;101524.47;;;14.88;53.71
51715;BME280;39115;59.332;18.034;2023-09-18T10:53:05;101532.19;;;14.91;53.56
51715;BME280;39115;59.332;18.034;2023-09-18T10:55:26;101537.28;;;14.94;53.97
51715;BME280;39115;59.332;18.034;2023-09-18T10:57:54;101546.72;;;14.98;53.83
51715;BME280;39115;59.332;18.034;2023-09-18T11:00:17;101529.53;;;15.00;53.96
51715;BME280;39115;59.332;18.034;2023-09-18T11:02:37;101532.75;;;15.04;53.84
51715;BME280;39115;59.332;18.034;2023-09-18T11:04:58;101539.50;;;15.08;53.60
51715;BME280;39115;59.332;18.034;2023-09-18T11:07:22;101534.69;;;15.12;53.69
51715;BME280;39115;59.332;18.034;2023-09-18T11:09:45;101528.06;;;15.16;53.57
51715;BME280;39115;59.332;18.034;2023-09-18T11:12:06;101528.63;;;15.20;53.96
51715;BME280;39115;59.332;18.034;2023-09-18T11:14:48;101522.78;;;15.24;53.67
51715;BME280;39115;59.332;18.034;2023-09-18T11:17:35;101525.19;;;15.27;53.66
51715;BME280;39115;59.332;18.034;2023-09-18T11:20:18;101521.25;;;15.31;53.67
51715;BME280;39115;59.332;18.034;2023-09-18T11:22:40;101511.19;;;15.33;53.82
51715;BME280;39115;59.332;18.034;2023-09-18T11:27:55;101512.16;;;15.42;54.19
51715;BME280;39115;59.332;18.034;2023-09-18T11:30:16;101522.56;;;15.45;53.76
51715;BME280;39115;59.332;18.034;2023-09-18T11:32:38;101517.75;;;15.49;53.83
51715;BME280;39115;59.332;18.034;2023-09-18T11:35:10;101520.00;;;15.54;54.01
51715;BME280;39115;59.332;18.034;2023-09-18T11:37:32;101508.28;;;15.55;53.72
51715;BME280;39115;59.332;18.034;2023-09-18T11:39:54;101513.03;;;15.61;53.85
51715;BME280;39115;59.332;18.034;2023-09-18T11:42:20;101495.78;;;15.63;54.08
51715;BME280;39115;59.332;18.034;2023-09-18T11:44:43;101495.50;;;15.67;53.95
51715;BME280;39115;59.332;18.034;2023-09-18T11:47:16;101486.13;;;15.71;54.00
51715;BME280;39115;59.332;18.034;2023-09-18T11:49:46;101489.41;;;15.74;53.90
51715;BME280;39115;59.332;18.034;2023-09-18T11:52:09;101487.09;;;15.79;54.19
51715;BME280;39115;59.332;18.034;2023-09-18T11:54:32;101480.56;;;15.82;53.79
51715;BME280;39115;59.332;18.034;2023-09-18T11:56:54;101474.09;;;15.85;54.15
51715;BME280;39115;59.332;18.034;2023-09-18T11:59:15;101481.69;;;15.89;53.99
51715;BME280;39115;59.332;18.034;2023-09-18T12:01:36;101476.03;;;15.92;54.07
51715;BME280;39115;59.332;18.034;2023-09-18T12:04:00;101468.63;;;15.94;54.03
51715;BME280;39115;59.332;18.034;2023-09-18T12:06:21;101462.97;;;15.98;54.14
51715;BME280;39115;59.332;18.034;2023-09-18T12:08:42;101460.00;;;16.01;53.95
51715;BME280;39115;59.332;18.034;2023-09-18T12:11:06;101457.84;;;16.04;53.82
51715;BME280;39115;59.332;18.034;2023-09-18T12:13:27;101445.09;;;16.06;54.01
51715;BME280;39115;59.332;18.034;2023-09-18T12:15:48;101442.94;;;16.10;53.62
51715;BME280;39115;59.332;18.034;2023-09-18T12:18:10;101437.28;;;16.13;53.82